Time;durP1;ratioP1;P1;durP2;ratioP2;P2;SDS_P1;SDS_P2;PMS_P1;PMS_P2;Temp;Humidity;BMP_temperature;BMP_pressure;BME280_temperature;BME280_humidity;BME280_pressure;Samples;Min_cycle;Max_cycle;Signal;HPM_P1;HPM_P2
2022/01/09 00:01:30;;;;;;;;;1.00;1.00;;;;;20.92;38.23;99642.38;5063509;28;51889;-40
2022/01/09 00:03:55;;;;;;;;;1.75;1.75;;;;;20.89;38.19;99622.81;5066759;28;51139;-40
2022/01/09 00:06:21;;;;;;;;;1.50;1.25;;;;;20.88;38.43;99646.75;5062934;28;51103;-40
2022/01/09 00:08:47;;;;;;;;;1.50;1.00;;;;;20.87;38.38;99656.09;5067787;28;51282;-41
2022/01/09 00:11:14;;;;;;;;;0.50;0.50;;;;;20.86;38.02;99656.34;5066484;28;51955;-42
2022/01/09 00:13:40;;;;;;;;;2.00;2.00;;;;;20.83;38.45;99652.16;5063660;28;51314;-41
2022/01/09 00:16:06;;;;;;;;;3.75;2.00;;;;;20.82;38.22;99649.66;5063208;28;51087;-39
2022/01/09 00:18:31;;;;;;;;;1.75;1.00;;;;;20.81;37.95;99670.03;5061557;28;50984;-46
2022/01/09 00:20:57;;;;;;;;;3.00;1.00;;;;;20.80;38.45;99676.63;5070730;28;51081;-47
2022/01/09 00:23:23;;;;;;;;;3.00;3.00;;;;;20.79;38.27;99680.47;5060933;28;51070;-47
2022/01/09 00:25:48;;;;;;;;;1.00;0.50;;;;;20.77;38.41;99683.47;5066171;28;51632;-48
2022/01/09 00:28:13;;;;;;;;;3.75;1.50;;;;;20.75;38.48;99686.47;5065319;28;51122;-44
2022/01/09 00:30:39;;;;;;;;;2.50;2.00;;;;;20.75;38.58;99691.16;5066748;28;51765;-46
2022/01/09 00:33:06;;;;;;;;;1.00;1.00;;;;;20.72;38.38;99692.47;5059515;28;51031;-44
2022/01/09 00:35:32;;;;;;;;;3.00;2.50;;;;;20.69;38.39;99701.22;5065264;28;51191;-47
2022/01/09 00:37:57;;;;;;;;;3.00;3.00;;;;;20.68;38.23;99699.56;5066364;28;51069;-47
2022/01/09 00:40:23;;;;;;;;;3.00;2.00;;;;;20.67;38.55;99713.56;5065843;28;51888;-48
2022/01/09 00:42:48;;;;;;;;;1.50;1.50;;;;;20.67;38.34;99716.34;5063614;28;51304;-48
2022/01/09 00:45:14;;;;;;;;;6.00;2.50;;;;;20.63;38.36;99715.16;5063790;28;51155;-46
2022/01/09 00:47:40;;;;;;;;;4.50;3.00;;;;;20.62;38.43;99717.06;5062450;28;51033;-47
2022/01/09 00:50:07;;;;;;;;;2.00;2.00;;;;;20.60;38.58;99724.75;5065927;28;51905;-49
2022/01/09 00:52:33;;;;;;;;;3.50;2.25;;;;;20.60;38.57;99726.66;5067072;28;51468;-46
2022/01/09 00:54:58;;;;;;;;;3.50;3.00;;;;;20.59;38.25;99736.00;5065546;28;51141;-46
2022/01/09 00:57:23;;;;;;;;;1.75;1.50;;;;;20.56;38.36;99753.84;5066347;28;51025;-47
2022/01/09 00:59:49;;;;;;;;;2.50;2.00;;;;;20.54;38.23;99750.53;5064186;28;52498;-46
2022/01/09 01:02:14;;;;;;;;;6.00;2.25;;;;;20.53;38.41;99748.00;5057080;28;50986;-46
2022/01/09 01:04:40;;;;;;;;;4.75;2.00;;;;;20.51;38.12;99769.41;5066750;28;51131;-47
2022/01/09 01:07:06;;;;;;;;;4.75;3.75;;;;;20.50;38.72;99776.00;5064306;28;51200;-48
2022/01/09 01:09:31;;;;;;;;;2.25;2.00;;;;;20.49;38.44;99785.34;5064036;28;51207;-44
2022/01/09 01:12:02;;;;;;;;;5.75;2.50;;;;;20.48;38.06;99795.50;5063878;28;51035;-49
2022/01/09 01:14:28;;;;;;;;;3.00;2.25;;;;;20.45;38.50;99801.53;5065553;28;51685;-48
2022/01/09 01:16:55;;;;;;;;;2.25;2.00;;;;;20.44;38.50;99810.84;5065561;28;50932;-45
2022/01/09 01:19:21;;;;;;;;;5.50;4.00;;;;;20.42;38.25;99808.31;5057548;28;51817;-44
2022/01/09 01:21:46;;;;;;;;;4.50;4.00;;;;;20.40;38.62;99810.47;5069703;28;51418;-46
2022/01/09 01:24:12;;;;;;;;;3.50;3.25;;;;;20.40;38.56;99820.63;5061592;28;51181;-44
2022/01/09 01:26:37;;;;;;;;;4.00;3.50;;;;;20.38;38.24;99826.38;5075263;27;51199;-49
2022/01/09 01:29:03;;;;;;;;;3.00;2.50;;;;;20.35;37.96;99829.63;5065582;27;51850;-49
2022/01/09 01:31:29;;;;;;;;;2.50;2.00;;;;;20.35;38.14;99848.88;5065274;28;51381;-48
2022/01/09 01:33:54;;;;;;;;;4.25;3.50;;;;;20.34;37.99;99849.13;5062875;28;51241;-48
2022/01/09 01:36:20;;;;;;;;;3.25;2.50;;;;;20.33;38.15;99862.06;5063644;28;51139;-47
2022/01/09 01:38:45;;;;;;;;;2.00;2.00;;;;;20.32;38.12;99865.03;5058884;28;51865;-44
2022/01/09 01:41:11;;;;;;;;;3.00;3.00;;;;;20.31;38.12;99877.09;5061976;28;51072;-49
2022/01/09 01:43:36;;;;;;;;;1.75;1.75;;;;;20.29;38.39;99884.78;5061220;28;51007;-46
2022/01/09 01:46:02;;;;;;;;;6.50;3.50;;;;;20.27;38.57;99904.28;5066203;28;51112;-48
2022/01/09 01:48:29;;;;;;;;;2.50;2.50;;;;;20.26;38.09;99901.78;5063519;27;51713;-50
2022/01/09 01:50:54;;;;;;;;;5.25;3.25;;;;;20.25;38.20;99928.44;5066373;28;51133;-49
2022/01/09 01:53:21;;;;;;;;;2.75;2.75;;;;;20.23;38.25;99930.59;5057435;28;51215;-45
2022/01/09 01:55:52;;;;;;;;;3.75;3.00;;;;;20.23;38.44;99910.50;5063570;28;51327;-44
2022/01/09 01:58:17;;;;;;;;;2.75;2.75;;;;;20.21;38.50;99923.66;5057170;28;51763;-45
2022/01/09 02:00:42;;;;;;;;;3.50;2.00;;;;;20.19;38.27;99921.97;5066094;28;51165;-50
2022/01/09 02:03:09;;;;;;;;;5.00;3.00;;;;;20.19;38.08;99932.16;5071985;28;52175;-46
2022/01/09 02:05:35;;;;;;;;;3.00;2.75;;;;;20.17;38.64;99937.06;5071613;28;51398;-48
2022/01/09 02:08:02;;;;;;;;;2.75;2.50;;;;;20.16;38.42;99938.13;5060739;28;51059;-48
2022/01/09 02:10:28;;;;;;;;;4.00;3.00;;;;;20.16;38.43;99941.72;5066790;28;51227;-50
2022/01/09 02:12:56;;;;;;;;;5.50;2.50;;;;;20.13;38.21;99942.22;5069382;28;51095;-50
2022/01/09 02:15:26;;;;;;;;;3.50;2.50;;;;;20.14;38.44;99962.28;5067859;28;51159;-51
2022/01/09 02:17:52;;;;;;;;;3.00;2.25;;;;;20.12;38.48;99954.28;5066729;28;52092;-48
2022/01/09 02:20:17;;;;;;;;;2.50;2.50;;;;;20.12;38.61;99956.22;5068211;28;51174;-48
2022/01/09 02:22:43;;;;;;;;;2.25;1.25;;;;;20.10;38.41;99945.44;5070951;27;51359;-50
2022/01/09 02:25:10;;;;;;;;;5.25;2.75;;;;;20.09;38.58;99962.16;5067020;28;51172;-46
2022/01/09 02:27:36;;;;;;;;;3.25;3.25;;;;;20.09;38.39;99968.50;5067113;27;51178;-48
2022/01/09 02:30:05;;;;;;;;;3.50;3.50;;;;;20.08;38.33;99969.56;5069808;28;51805;-45
2022/01/09 02:32:30;;;;;;;;;4.00;2.00;;;;;20.08;38.26;99957.75;5066638;28;51171;-47
2022/01/09 02:34:55;;;;;;;;;6.00;3.00;;;;;20.06;38.57;99963.50;5066668;28;51076;-45
2022/01/09 02:37:21;;;;;;;;;2.75;2.75;;;;;20.04;38.37;99965.66;5067519;28;50922;-44
2022/01/09 02:39:48;;;;;;;;;2.75;2.75;;;;;20.03;38.40;99974.13;5066938;28;51136;-45
2022/01/09 02:42:23;;;;;;;;;3.25;3.25;;;;;20.02;38.35;99978.81;5069699;28;51198;-43
2022/01/09 02:44:50;;;;;;;;;5.25;3.75;;;;;20.02;38.59;99978.81;5074279;27;51216;-42
2022/01/09 02:47:16;;;;;;;;;3.00;2.00;;;;;20.02;38.39;99997.22;5066729;28;51781;-42
2022/01/09 02:49:46;;;;;;;;;4.00;2.00;;;;;20.00;38.64;99997.44;5068050;28;51062;-44
2022/01/09 02:52:24;;;;;;;;;4.00;2.50;;;;;20.00;38.62;100008.41;5067786;27;51216;-42
2022/01/09 02:57:32;;;;;;;;;2.00;2.00;;;;;19.98;38.65;100002.34;5069156;28;51058;-45
2022/01/09 02:59:57;;;;;;;;;5.50;2.00;;;;;19.96;38.78;99990.75;5066477;28;51463;-44
2022/01/09 03:02:23;;;;;;;;;1.75;1.75;;;;;19.97;38.33;100005.31;5064762;28;51087;-46
2022/01/09 03:04:48;;;;;;;;;3.00;2.75;;;;;19.96;38.36;100011.91;5068301;28;50979;-46
2022/01/09 03:07:13;;;;;;;;;2.00;2.00;;;;;19.95;38.38;100015.72;5065497;28;51814;-45
2022/01/09 03:09:39;;;;;;;;;3.00;3.00;;;;;19.93;38.46;100015.97;5065784;28;51251;-44
2022/01/09 03:12:05;;;;;;;;;2.75;2.50;;;;;19.92;38.49;100014.31;5067401;28;51275;-43
2022/01/09 03:14:30;;;;;;;;;2.00;2.00;;;;;19.92;38.50;100022.53;5068644;28;51250;-48
2022/01/09 03:16:56;;;;;;;;;2.25;1.50;;;;;19.91;38.46;100014.53;5060849;28;51167;-44
2022/01/09 03:19:21;;;;;;;;;2.25;1.75;;;;;19.89;38.63;100017.50;5068272;28;51065;-44
2022/01/09 03:21:47;;;;;;;;;3.25;3.25;;;;;19.88;38.86;100021.34;5071714;27;51165;-46
2022/01/09 03:24:13;;;;;;;;;3.75;2.75;;;;;19.89;38.92;100028.50;5058243;28;51279;-46
2022/01/09 03:26:39;;;;;;;;;2.50;2.00;;;;;19.88;38.65;100021.34;5071438;27;51109;-46
2022/01/09 03:29:04;;;;;;;;;4.00;3.00;;;;;19.87;38.90;100025.16;5065479;28;51105;-43
2022/01/09 03:31:29;;;;;;;;;1.00;1.00;;;;;19.86;38.47;100023.50;5060560;28;51052;-46
2022/01/09 03:33:55;;;;;;;;;2.00;2.00;;;;;19.85;38.80;100030.06;5070537;28;51018;-43
2022/01/09 03:36:20;;;;;;;;;2.25;1.25;;;;;19.84;38.55;100022.91;5065077;28;51057;-45
2022/01/09 03:38:45;;;;;;;;;4.00;2.50;;;;;19.83;38.67;100046.78;5067448;28;51172;-42
2022/01/09 03:41:11;;;;;;;;;2.25;2.25;;;;;19.84;38.51;100069.63;5070491;28;51216;-47
2022/01/09 03:43:36;;;;;;;;;2.75;1.00;;;;;19.82;38.60;100071.78;5061767;28;51068;-47
2022/01/09 03:46:01;;;;;;;;;2.00;2.00;;;;;19.81;38.65;100087.41;5071776;28;51806;-45
2022/01/09 03:48:29;;;;;;;;;3.50;2.00;;;;;19.80;38.51;100091.25;5065154;28;51115;-51
2022/01/09 03:50:55;;;;;;;;;2.50;2.00;;;;;19.81;38.75;100086.59;5071992;28;51164;-48
2022/01/09 03:53:20;;;;;;;;;2.00;2.00;;;;;19.80;38.58;100079.38;5067262;28;51063;-48
2022/01/09 03:55:45;;;;;;;;;2.75;2.25;;;;;19.78;38.79;100085.13;5065021;28;51195;-46
2022/01/09 03:58:11;;;;;;;;;5.50;3.00;;;;;19.77;38.51;100086.19;5071393;28;51111;-47
2022/01/09 04:00:36;;;;;;;;;4.50;3.50;;;;;19.77;38.63;100086.19;5068308;28;51323;-44
2022/01/09 04:03:01;;;;;;;;;3.00;1.50;;;;;19.77;38.67;100082.63;5073215;28;51109;-46
2022/01/09 04:05:27;;;;;;;;;4.50;2.75;;;;;19.76;39.03;100072.69;5066380;28;51853;-48
2022/01/09 04:07:52;;;;;;;;;3.00;3.00;;;;;19.75;38.48;100071.03;5065847;28;51135;-45
2022/01/09 04:10:20;;;;;;;;;3.50;2.25;;;;;19.74;38.95;100058.38;5063347;28;51272;-44
2022/01/09 04:12:50;;;;;;;;;3.25;2.50;;;;;19.74;38.61;100058.38;5065789;28;51213;-46
2022/01/09 04:15:17;;;;;;;;;2.25;2.25;;;;;19.72;38.85;100044.88;5059377;28;51744;-44
2022/01/09 04:17:52;;;;;;;;;4.00;2.00;;;;;19.71;38.58;100048.69;5073540;28;51129;-46
2022/01/09 04:20:23;;;;;;;;;2.00;2.00;;;;;19.70;38.87;100051.69;5066518;28;50978;-45
2022/01/09 04:22:49;;;;;;;;;2.00;2.00;;;;;19.69;38.65;100049.97;5070421;28;51156;-45
2022/01/09 04:25:16;;;;;;;;;3.25;2.00;;;;;19.69;38.82;100060.97;5061828;28;51532;-44
2022/01/09 04:27:42;;;;;;;;;2.50;2.50;;;;;19.67;38.89;100074.94;5076328;27;51069;-48
2022/01/09 04:30:08;;;;;;;;;4.00;2.50;;;;;19.67;38.98;100074.13;5066700;28;51271;-45
2022/01/09 04:32:34;;;;;;;;;1.25;1.25;;;;;19.68;38.90;100075.78;5066600;28;51429;-45
2022/01/09 04:35:00;;;;;;;;;1.75;1.75;;;;;19.66;38.96;100077.94;5067837;28;51088;-45
2022/01/09 04:37:25;;;;;;;;;3.00;2.00;;;;;19.66;38.55;100075.19;5067818;28;51111;-49
2022/01/09 04:39:52;;;;;;;;;2.25;2.25;;;;;19.64;38.84;100060.84;5066159;28;51202;-42
2022/01/09 04:42:19;;;;;;;;;3.00;1.00;;;;;19.64;38.90;100063.59;5067687;28;51459;-44
2022/01/09 04:44:44;;;;;;;;;2.50;2.00;;;;;19.63;38.80;100070.16;5067635;28;51165;-45
2022/01/09 04:47:14;;;;;;;;;1.25;1.25;;;;;19.63;38.93;100072.91;5062905;28;50993;-43
2022/01/09 04:49:42;;;;;;;;;1.50;1.50;;;;;19.62;39.00;100087.72;5067431;27;50997;-45
2022/01/09 04:52:12;;;;;;;;;2.25;2.25;;;;;19.60;38.92;100085.22;5066883;28;51323;-47
2022/01/09 04:54:37;;;;;;;;;2.50;2.00;;;;;19.59;38.73;100092.63;5063878;28;51147;-43
2022/01/09 04:57:03;;;;;;;;;2.00;2.00;;;;;19.59;38.96;100084.38;5065141;28;51032;-43
2022/01/09 04:59:29;;;;;;;;;2.50;2.50;;;;;19.59;39.19;100080.78;5062026;28;51283;-46
2022/01/09 05:01:55;;;;;;;;;2.00;2.00;;;;;19.57;38.65;100070.03;5064666;28;51147;-47
2022/01/09 05:04:20;;;;;;;;;3.75;2.00;;;;;19.57;38.96;100075.53;5070553;28;52139;-47
2022/01/09 05:06:45;;;;;;;;;1.75;1.75;;;;;19.56;38.76;100081.25;5066442;28;50963;-47
2022/01/09 05:09:11;;;;;;;;;2.00;2.00;;;;;19.55;38.90;100080.41;5067439;28;51723;-44
2022/01/09 05:11:37;;;;;;;;;2.00;1.75;;;;;19.55;39.00;100080.41;5065647;28;51010;-45
2022/01/09 05:14:03;;;;;;;;;3.00;2.00;;;;;19.55;39.01;100082.28;5071167;28;51999;-46
2022/01/09 05:16:28;;;;;;;;;1.00;1.00;;;;;19.53;38.82;100079.78;5062947;28;51176;-47
2022/01/09 05:19:01;;;;;;;;;1.00;0.75;;;;;19.54;38.85;100086.94;5066626;28;51196;-48
2022/01/09 05:21:26;;;;;;;;;1.00;1.00;;;;;19.53;39.05;100085.28;5072813;28;51270;-45
2022/01/09 05:23:51;;;;;;;;;1.00;1.00;;;;;19.52;38.88;100074.53;5068574;27;51008;-47
2022/01/09 05:26:17;;;;;;;;;1.00;1.00;;;;;19.50;38.96;100077.53;5071984;27;51081;-48
2022/01/09 05:28:42;;;;;;;;;1.00;1.00;;;;;19.50;38.63;100073.94;5066625;27;51180;-45
2022/01/09 05:31:07;;;;;;;;;1.50;0.75;;;;;19.49;38.97;100073.09;5065570;28;50949;-46
2022/01/09 05:33:33;;;;;;;;;1.00;1.00;;;;;19.48;39.11;100068.66;5064243;28;51704;-43
2022/01/09 05:35:58;;;;;;;;;1.00;0.25;;;;;19.48;38.86;100070.56;5064290;28;51056;-43
2022/01/09 05:38:23;;;;;;;;;1.00;1.00;;;;;19.47;38.88;100063.38;5064762;28;51279;-44
2022/01/09 05:40:49;;;;;;;;;0.00;0.00;;;;;19.47;38.93;100061.47;5064291;28;51310;-43
2022/01/09 05:43:15;;;;;;;;;0.50;0.50;;;;;19.46;39.02;100061.72;5068011;28;51149;-42
2022/01/09 05:45:40;;;;;;;;;1.00;1.00;;;;;19.46;38.95;100068.03;5063641;28;51347;-45
2022/01/09 05:48:06;;;;;;;;;1.00;1.00;;;;;19.45;38.98;100060.88;5063720;28;50983;-42
2022/01/09 05:50:32;;;;;;;;;1.00;0.00;;;;;19.43;38.89;100063.03;5063609;28;51296;-47
2022/01/09 05:52:58;;;;;;;;;1.00;1.00;;;;;19.44;39.08;100072.09;5064663;28;51065;-46
2022/01/09 05:55:23;;;;;;;;;1.00;1.00;;;;;19.43;39.04;100065.78;5064944;28;51366;-45
2022/01/09 05:57:49;;;;;;;;;1.00;0.25;;;;;19.42;39.04;100066.84;5070920;28;51811;-46
2022/01/09 06:00:15;;;;;;;;;0.75;0.50;;;;;19.42;38.90;100079.75;5063724;28;51133;-43
2022/01/09 06:02:40;;;;;;;;;1.75;1.75;;;;;19.41;38.98;100106.38;5063358;28;51063;-44
2022/01/09 06:05:07;;;;;;;;;4.00;1.25;;;;;19.40;39.05;100118.44;5063268;28;51208;-48
2022/01/09 06:07:32;;;;;;;;;2.00;2.00;;;;;19.40;38.97;100118.44;5061663;28;51094;-48
2022/01/09 06:09:58;;;;;;;;;2.00;2.00;;;;;19.40;39.08;100110.19;5063688;28;52285;-46
2022/01/09 06:12:23;;;;;;;;;0.50;0.50;;;;;19.39;38.86;100100.28;5063415;28;51952;-49
2022/01/09 06:14:49;;;;;;;;;0.75;0.75;;;;;19.39;38.85;100100.28;5063930;28;51155;-50
2022/01/09 06:17:14;;;;;;;;;0.00;0.00;;;;;19.39;38.91;100107.69;5057502;28;51498;-47
2022/01/09 06:19:39;;;;;;;;;0.00;0.00;;;;;19.38;38.84;100111.47;5064976;27;51157;-46
2022/01/09 06:22:05;;;;;;;;;3.00;0.00;;;;;19.37;38.84;100105.16;5068835;28;51424;-48
2022/01/09 06:24:30;;;;;;;;;1.00;0.75;;;;;19.37;38.96;100116.13;5070747;28;51123;-48
2022/01/09 06:26:56;;;;;;;;;1.50;0.25;;;;;19.36;38.95;100114.47;5072186;27;51155;-49
2022/01/09 06:29:21;;;;;;;;;1.00;0.00;;;;;19.36;38.97;100127.34;5065891;28;51177;-44
2022/01/09 06:31:46;;;;;;;;;1.75;0.50;;;;;19.36;38.92;100125.44;5060265;28;51155;-47
2022/01/09 06:34:13;;;;;;;;;1.00;1.00;;;;;19.34;39.04;100124.84;5068541;27;51102;-46
2022/01/09 06:36:40;;;;;;;;;1.00;1.00;;;;;19.35;38.92;100120.19;5062533;28;51393;-44
2022/01/09 06:39:05;;;;;;;;;0.50;0.00;;;;;19.33;38.94;100110.28;5069050;28;51085;-46
2022/01/09 06:41:31;;;;;;;;;0.00;0.00;;;;;19.33;38.89;100126.75;5065828;28;51053;-43
2022/01/09 06:43:57;;;;;;;;;0.00;0.00;;;;;19.32;39.06;100133.31;5056435;28;51364;-43
2022/01/09 06:46:22;;;;;;;;;0.00;0.00;;;;;19.32;39.10;100124.25;5061265;28;51176;-43
2022/01/09 06:48:47;;;;;;;;;0.50;0.00;;;;;19.31;39.23;100128.06;5066103;28;51203;-45
2022/01/09 06:51:13;;;;;;;;;0.75;0.75;;;;;19.31;39.08;100125.31;5066243;28;51623;-44
2022/01/09 06:53:38;;;;;;;;;0.00;0.00;;;;;19.31;39.13;100130.81;5061499;28;51104;-44
2022/01/09 06:56:05;;;;;;;;;0.25;0.00;;;;;19.30;39.27;100123.66;5068960;28;51087;-43
2022/01/09 06:58:30;;;;;;;;;1.50;0.00;;;;;19.29;38.99;100124.72;5066611;28;51128;-43
2022/01/09 07:00:56;;;;;;;;;2.50;0.50;;;;;19.28;38.86;100120.31;5066133;28;51073;-43
2022/01/09 07:03:22;;;;;;;;;0.00;0.00;;;;;19.29;38.97;100121.97;5068556;28;51233;-43
2022/01/09 07:05:48;;;;;;;;;2.00;0.00;;;;;19.27;39.07;100116.69;5070457;28;51316;-43
2022/01/09 07:08:13;;;;;;;;;0.00;0.00;;;;;19.27;39.11;100124.94;5066086;28;51151;-44
2022/01/09 07:10:38;;;;;;;;;2.50;1.00;;;;;19.28;39.48;100114.81;5065147;28;51180;-46
2022/01/09 07:13:04;;;;;;;;;1.00;0.00;;;;;19.28;39.32;100121.13;5084031;27;51180;-44
2022/01/09 07:15:29;;;;;;;;;0.00;0.00;;;;;19.27;39.37;100111.19;5071573;28;51247;-43
2022/01/09 07:17:54;;;;;;;;;0.00;0.00;;;;;19.27;39.24;100124.09;5069088;28;51302;-48
2022/01/09 07:20:20;;;;;;;;;0.00;0.00;;;;;19.27;39.45;100132.31;5065692;28;51022;-47
2022/01/09 07:22:45;;;;;;;;;2.25;0.00;;;;;19.27;39.21;100132.31;5071205;28;51112;-45
2022/01/09 07:25:11;;;;;;;;;0.00;0.00;;;;;19.25;39.31;100127.06;5066311;28;51233;-45
2022/01/09 07:27:36;;;;;;;;;1.00;1.00;;;;;19.24;39.07;100114.41;5075109;27;50982;-44
2022/01/09 07:30:03;;;;;;;;;0.75;0.75;;;;;19.23;39.20;100128.38;5070224;28;51147;-44
2022/01/09 07:32:28;;;;;;;;;0.50;0.00;;;;;19.23;39.19;100134.72;5066380;28;51435;-46
2022/01/09 07:34:57;;;;;;;;;3.00;0.25;;;;;19.22;39.26;100134.94;5062709;28;51052;-48
2022/01/09 07:37:22;;;;;;;;;0.00;0.00;;;;;19.21;39.12;100134.09;5066060;28;51033;-44
2022/01/09 07:39:47;;;;;;;;;0.00;0.00;;;;;19.20;39.19;100143.41;5065293;28;51665;-47
2022/01/09 07:42:13;;;;;;;;;0.25;0.00;;;;;19.21;39.39;100147.00;5065698;28;51011;-47
2022/01/09 07:44:38;;;;;;;;;0.00;0.00;;;;;19.20;39.22;100139.84;5071024;28;51233;-47
2022/01/09 07:47:04;;;;;;;;;0.00;0.00;;;;;19.18;39.22;100131.00;5067895;28;51345;-48
2022/01/09 07:49:29;;;;;;;;;0.00;0.00;;;;;19.17;39.16;100134.78;5066317;28;51007;-42
2022/01/09 07:51:55;;;;;;;;;1.00;0.00;;;;;19.17;39.08;100141.09;5073824;28;51033;-48
2022/01/09 07:54:20;;;;;;;;;0.50;0.00;;;;;19.16;39.24;100122.13;5067217;28;51220;-45
2022/01/09 07:56:46;;;;;;;;;0.00;0.00;;;;;19.16;39.21;100124.88;5067205;28;51268;-47
2022/01/09 07:59:11;;;;;;;;;0.00;0.00;;;;;19.16;39.22;100135.84;5066703;28;51911;-49
2022/01/09 08:01:36;;;;;;;;;0.00;0.00;;;;;19.16;39.39;100138.59;5062069;28;51187;-49
2022/01/09 08:04:02;;;;;;;;;0.00;0.00;;;;;19.15;39.38;100142.41;5068162;28;51010;-45
2022/01/09 08:06:27;;;;;;;;;4.50;0.50;;;;;19.14;39.21;100143.50;5067805;28;50892;-48
2022/01/09 08:08:52;;;;;;;;;0.00;0.00;;;;;19.14;39.27;100135.25;5065955;28;51036;-48
2022/01/09 08:11:18;;;;;;;;;0.00;0.00;;;;;19.14;39.17;100127.84;5069625;28;50872;-49
2022/01/09 08:13:44;;;;;;;;;0.00;0.00;;;;;19.13;39.19;100117.09;5064099;28;51112;-44
2022/01/09 08:16:09;;;;;;;;;0.00;0.00;;;;;19.12;39.13;100115.44;5067786;27;51153;-48
2022/01/09 08:18:35;;;;;;;;;0.00;0.00;;;;;19.11;39.15;100125.56;5068988;28;51153;-46
2022/01/09 08:21:00;;;;;;;;;0.00;0.00;;;;;19.12;39.21;100131.91;5065781;28;51121;-43
2022/01/09 08:23:25;;;;;;;;;0.00;0.00;;;;;19.10;39.20;100137.63;5071682;28;51058;-44
2022/01/09 08:25:51;;;;;;;;;0.75;0.00;;;;;19.10;39.24;100142.28;5061224;27;51229;-49
2022/01/09 08:28:16;;;;;;;;;1.00;0.00;;;;;19.12;39.98;100145.63;5054995;28;52750;-49
2022/01/09 08:30:41;;;;;;;;;0.00;0.00;;;;;19.13;40.84;100136.31;5064274;28;51112;-45
2022/01/09 08:33:07;;;;;;;;;0.50;0.00;;;;;19.16;40.12;100138.59;5064549;28;51264;-49
2022/01/09 08:35:32;;;;;;;;;3.75;0.00;;;;;19.19;39.96;100132.66;5065174;28;51160;-46
2022/01/09 08:37:58;;;;;;;;;1.25;0.00;;;;;19.19;40.04;100144.47;5059492;28;51152;-48
2022/01/09 08:40:23;;;;;;;;;0.00;0.00;;;;;19.20;40.08;100148.91;5062197;28;51173;-46
2022/01/09 08:42:55;;;;;;;;;2.25;0.00;;;;;19.20;39.84;100137.09;5056402;27;51137;-44
2022/01/09 08:45:22;;;;;;;;;0.50;0.00;;;;;19.26;40.14;100136.97;5062135;28;51196;-44
2022/01/09 08:47:47;;;;;;;;;2.25;1.00;;;;;19.34;39.91;100133.09;5058747;27;52647;-49
2022/01/09 08:50:14;;;;;;;;;0.00;0.00;;;;;19.43;39.71;100128.94;5056784;28;51343;-47
2022/01/09 08:52:40;;;;;;;;;1.00;0.00;;;;;19.54;39.73;100141.06;5060023;28;51054;-47
2022/01/09 08:55:06;;;;;;;;;0.75;0.75;;;;;19.64;39.94;100135.88;5063559;28;51072;-48
2022/01/09 08:57:32;;;;;;;;;0.00;0.00;;;;;19.73;40.00;100145.47;5064124;28;52802;-47
2022/01/09 08:59:58;;;;;;;;;0.00;0.00;;;;;19.82;39.54;100132.22;5060763;28;51187;-45
2022/01/09 09:02:23;;;;;;;;;0.00;0.00;;;;;19.90;39.56;100137.38;5064469;28;50994;-46
2022/01/09 09:04:49;;;;;;;;;0.00;0.00;;;;;19.99;38.98;100144.19;5063675;28;51315;-45
2022/01/09 09:07:18;;;;;;;;;1.50;0.00;;;;;20.06;38.81;100144.09;5055407;28;51114;-48
2022/01/09 09:09:43;;;;;;;;;0.00;0.00;;;;;20.13;38.96;100153.94;5063123;28;50990;-48
2022/01/09 09:12:09;;;;;;;;;0.00;0.00;;;;;20.22;38.77;100162.69;5067805;28;51084;-42
2022/01/09 09:14:34;;;;;;;;;0.00;0.00;;;;;20.31;38.55;100163.16;5058257;28;51158;-43
2022/01/09 09:16:59;;;;;;;;;0.00;0.00;;;;;20.37;38.70;100156.72;5069247;28;51950;-46
2022/01/09 09:19:25;;;;;;;;;0.00;0.00;;;;;20.45;38.00;100167.41;5065168;28;51277;-47
2022/01/09 09:21:50;;;;;;;;;0.00;0.00;;;;;20.52;38.16;100168.09;5062422;28;51084;-46
2022/01/09 09:24:17;;;;;;;;;0.50;0.00;;;;;20.57;38.07;100179.25;5069413;28;51138;-42
2022/01/09 09:26:42;;;;;;;;;0.75;0.50;;;;;20.64;37.56;100174.47;5069450;27;51060;-48
2022/01/09 09:29:08;;;;;;;;;0.50;0.50;;;;;20.70;37.62;100179.00;5070434;27;51012;-45
2022/01/09 09:31:33;;;;;;;;;0.00;0.00;;;;;20.77;37.95;100178.03;5064538;28;51164;-43
2022/01/09 09:33:59;;;;;;;;;2.50;1.00;;;;;20.83;37.32;100185.31;5066489;28;50938;-47
2022/01/09 09:36:25;;;;;;;;;0.75;0.75;;;;;20.87;37.89;100175.53;5063201;27;51943;-47
2022/01/09 09:38:51;;;;;;;;;1.00;0.00;;;;;20.93;37.18;100178.13;5063947;27;51236;-43
2022/01/09 09:41:16;;;;;;;;;0.25;0.00;;;;;20.99;37.43;100179.09;5066055;28;51089;-46
2022/01/09 09:43:42;;;;;;;;;0.75;0.00;;;;;21.03;37.45;100172.00;5068382;27;51241;-45
2022/01/09 09:46:07;;;;;;;;;0.00;0.00;;;;;21.10;37.35;100178.25;5063347;28;51849;-48
2022/01/09 09:48:33;;;;;;;;;1.00;1.00;;;;;21.17;37.30;100183.63;5063153;28;51026;-45
2022/01/09 09:50:58;;;;;;;;;0.00;0.00;;;;;21.23;37.30;100175.22;5063144;28;51314;-47
2022/01/09 09:53:24;;;;;;;;;1.25;1.00;;;;;21.31;37.70;100191.41;5070932;27;51092;-47
2022/01/09 09:55:51;;;;;;;;;3.00;0.75;;;;;21.38;37.60;100191.28;5075646;27;51934;-46
2022/01/09 09:58:18;;;;;;;;;2.00;1.00;;;;;21.45;37.84;100194.69;5064553;28;51477;-43
2022/01/09 10:00:51;;;;;;;;;0.00;0.00;;;;;21.52;37.19;100208.34;5059980;27;51179;-47
2022/01/09 10:03:29;;;;;;;;;2.00;1.00;;;;;21.58;37.66;100210.97;5061637;28;51062;-45
2022/01/09 10:05:55;;;;;;;;;1.25;0.00;;;;;21.64;37.24;100203.63;5065182;28;51911;-46
2022/01/09 10:08:20;;;;;;;;;0.25;0.25;;;;;21.70;37.44;100191.63;5070320;28;51045;-45
2022/01/09 10:10:45;;;;;;;;;2.75;0.00;;;;;21.76;37.04;100209.09;5070833;27;51166;-45
2022/01/09 10:13:17;;;;;;;;;0.25;0.00;;;;;21.82;36.99;100183.31;5065347;28;51172;-46
2022/01/09 10:16:09;;;;;;;;;0.25;0.00;;;;;21.88;36.78;100185.06;5066592;28;52646;-47
2022/01/09 10:18:46;;;;;;;;;2.00;0.00;;;;;21.94;37.15;100186.84;5058656;28;51026;-43
2022/01/09 10:21:17;;;;;;;;;0.00;0.00;;;;;21.99;36.77;100191.59;5066673;27;52081;-46
2022/01/09 10:24:00;;;;;;;;;2.25;0.00;;;;;22.04;37.33;100195.31;5069297;27;51159;-44
2022/01/09 10:26:27;;;;;;;;;0.25;0.25;;;;;22.09;37.43;100198.19;5064629;27;52114;-45
2022/01/09 10:28:52;;;;;;;;;3.00;0.50;;;;;22.15;37.58;100193.59;5062443;27;51151;-47
2022/01/09 10:31:19;;;;;;;;;1.25;0.25;;;;;22.21;37.59;100195.38;5069453;28;51223;-44
2022/01/09 10:34:01;;;;;;;;;1.00;1.00;;;;;22.26;37.84;100202.88;5065441;27;50986;-42
2022/01/09 10:36:38;;;;;;;;;2.00;1.00;;;;;22.33;37.27;100214.59;5063162;28;52347;-43
2022/01/09 10:39:10;;;;;;;;;0.00;0.00;;;;;22.37;37.13;100210.25;5062908;27;51132;-42
2022/01/09 10:41:58;;;;;;;;;0.75;0.00;;;;;22.41;37.69;100200.41;5074280;27;51102;-44
2022/01/09 10:44:31;;;;;;;;;1.25;0.50;;;;;22.45;37.50;100204.31;5065258;28;51134;-43
2022/01/09 10:47:12;;;;;;;;;0.50;0.50;;;;;22.50;37.10;100209.06;5067398;28;51309;-44
2022/01/09 10:49:49;;;;;;;;;4.25;3.00;;;;;22.52;36.73;100196.72;5058887;28;51305;-44
2022/01/09 10:52:25;;;;;;;;;3.25;2.50;;;;;22.52;35.99;100210.50;5071269;28;51298;-43
2022/01/09 10:54:56;;;;;;;;;2.00;0.00;;;;;22.52;35.87;100204.16;5064223;28;51209;-43
2022/01/09 10:57:27;;;;;;;;;1.00;1.00;;;;;22.53;36.28;100214.94;5069291;28;50999;-43
2022/01/09 10:59:52;;;;;;;;;4.00;2.00;;;;;22.54;36.21;100215.78;5066003;28;51445;-44
2022/01/09 11:02:19;;;;;;;;;0.00;0.00;;;;;22.54;35.87;100211.09;5066673;28;51248;-43
2022/01/09 11:04:49;;;;;;;;;3.25;2.00;;;;;22.55;35.92;100220.22;5067166;28;51267;-43
2022/01/09 11:07:14;;;;;;;;;1.00;1.00;;;;;22.55;35.49;100229.31;5068609;27;51712;-42
2022/01/09 11:09:45;;;;;;;;;2.00;2.00;;;;;22.56;35.58;100224.63;5064782;28;51093;-42
2022/01/09 11:12:16;;;;;;;;;4.00;1.75;;;;;22.58;35.46;100236.25;5068648;28;51131;-43
2022/01/09 11:14:43;;;;;;;;;1.50;1.50;;;;;22.58;35.32;100233.50;5061974;28;51092;-43
2022/01/09 11:17:10;;;;;;;;;1.75;1.75;;;;;22.60;35.84;100234.06;5065406;28;51148;-43
2022/01/09 11:19:37;;;;;;;;;1.25;1.00;;;;;22.60;35.47;100234.06;5067451;28;51058;-43
2022/01/09 11:22:06;;;;;;;;;1.75;1.75;;;;;22.61;35.24;100227.47;5061696;28;50976;-42
2022/01/09 11:24:31;;;;;;;;;0.50;0.50;;;;;22.62;35.86;100229.16;5064369;28;51049;-44
2022/01/09 11:27:19;;;;;;;;;1.50;1.50;;;;;22.62;35.93;100218.97;5073672;27;51926;-44